createdAt,value
2019-01-05T00:01:11.030Z,17.80
2019-01-05T00:09:08.722Z,16.23
2019-01-05T00:11:54.377Z,19.63
2019-01-05T00:14:40.033Z,18.93
2019-01-05T00:17:25.780Z,14.07
2019-01-05T00:20:33.233Z,21.50
2019-01-05T00:26:46.058Z,21.77
2019-01-05T00:36:13.121Z,23.33
2019-01-05T00:42:47.581Z,18.43
2019-01-05T00:45:55.025Z,19.90
2019-01-05T00:49:02.445Z,15.47
2019-01-05T00:52:09.891Z,12.17
2019-01-05T00:55:17.347Z,15.83
2019-01-05T00:58:24.783Z,11.33
2019-01-05T01:01:10.440Z,15.40
2019-01-05T01:03:56.096Z,14.37
2019-01-05T01:06:41.755Z,13.10
2019-01-05T01:09:27.398Z,12.37
2019-01-05T01:12:13.237Z,7.77
2019-01-05T01:17:46.253Z,10.13
2019-01-05T01:20:53.721Z,7.13
2019-01-05T01:24:01.165Z,7.90
2019-01-05T01:26:46.926Z,11.03
2019-01-05T01:29:54.364Z,9.57
2019-01-05T01:32:40.023Z,11.80
2019-01-05T01:41:47.951Z,12.77
2019-01-05T01:44:55.398Z,11.50
2019-01-05T01:48:02.830Z,9.77
2019-01-05T01:51:10.262Z,10.63
2019-01-05T01:57:09.933Z,10.67
2019-01-05T02:00:17.369Z,12.43
2019-01-05T02:06:38.066Z,11.47
2019-01-05T02:09:45.510Z,10.37
2019-01-05T02:12:52.993Z,13.83
2019-01-05T02:16:00.408Z,11.37
2019-01-05T02:19:25.892Z,16.73
2019-01-05T02:26:00.397Z,16.77
2019-01-05T02:29:07.840Z,15.30
2019-01-05T02:32:15.270Z,10.60
2019-01-05T02:35:40.686Z,10.67
2019-01-05T02:39:06.115Z,17.30
2019-01-05T02:42:13.542Z,15.47
2019-01-05T02:45:38.953Z,14.07
2019-01-05T02:52:13.457Z,13.17
2019-01-05T02:55:20.909Z,11.60
2019-01-05T02:58:46.319Z,12.83
2019-01-05T03:01:53.765Z,10.90
2019-01-05T03:08:14.856Z,9.97
2019-01-05T03:11:22.304Z,7.93
2019-01-05T03:14:29.734Z,10.37
2019-01-05T03:17:37.164Z,13.37
2019-01-05T03:21:02.575Z,12.33
2019-01-05T03:24:10.004Z,7.27
2019-01-05T03:27:17.446Z,6.60
2019-01-05T03:30:42.874Z,9.50
2019-01-05T03:33:50.296Z,6.47
2019-01-05T03:37:15.716Z,9.43
2019-01-05T03:40:23.164Z,8.10
2019-01-05T03:43:48.572Z,6.87
2019-01-05T03:47:14.011Z,7.77
2019-01-05T03:50:39.451Z,6.67
2019-01-05T03:53:46.872Z,8.43
2019-01-05T03:56:54.313Z,7.47
2019-01-05T04:00:19.717Z,8.57
2019-01-05T04:03:27.140Z,7.53
2019-01-05T04:06:54.044Z,10.57
2019-01-05T04:16:49.617Z,10.03
2019-01-05T04:19:57.040Z,11.17
2019-01-05T04:23:22.469Z,8.00
2019-01-05T04:26:47.883Z,5.97
2019-01-05T04:33:08.760Z,8.57
2019-01-05T04:36:16.194Z,11.37
2019-01-05T04:39:41.607Z,6.70
2019-01-05T04:42:49.048Z,6.60
2019-01-05T04:45:56.478Z,6.50
2019-01-05T04:49:21.898Z,9.93
2019-01-05T04:52:47.323Z,11.67
2019-01-05T04:55:54.750Z,13.23
2019-01-05T04:59:20.181Z,10.20
2019-01-05T05:02:27.609Z,10.97
2019-01-05T05:05:35.045Z,10.00
2019-01-05T05:09:00.496Z,11.60
2019-01-05T05:12:07.941Z,10.70
2019-01-05T05:15:33.372Z,15.57
2019-01-05T05:18:58.828Z,12.20
2019-01-05T05:22:06.226Z,12.40
2019-01-05T05:25:31.653Z,13.83
2019-01-05T05:28:57.066Z,17.03
2019-01-05T05:38:36.468Z,11.57
2019-01-05T05:41:43.903Z,11.13
2019-01-05T05:44:51.356Z,14.10
2019-01-05T05:51:34.534Z,12.03
2019-01-05T05:58:11.779Z,18.37
2019-01-05T06:01:01.221Z,12.60
2019-01-05T06:04:08.649Z,14.07
2019-01-05T06:07:34.070Z,16.13
2019-01-05T06:10:59.488Z,12.57
2019-01-05T06:14:24.929Z,13.97
2019-01-05T06:17:32.382Z,18.70
2019-01-05T06:21:00.404Z,22.20
2019-01-05T06:24:07.838Z,16.17
2019-01-05T06:27:15.285Z,20.23
2019-01-05T06:30:40.691Z,16.17
2019-01-05T06:33:48.125Z,15.67
2019-01-05T06:37:13.552Z,16.00
2019-01-05T06:40:38.958Z,18.10
2019-01-05T06:44:04.375Z,17.60
2019-01-05T06:47:11.823Z,20.03
2019-01-05T06:54:04.320Z,20.37
2019-01-05T06:57:11.746Z,18.73
2019-01-05T07:00:37.171Z,21.13
2019-01-05T07:04:02.593Z,17.73
2019-01-05T07:13:53.688Z,21.30
2019-01-05T07:17:19.095Z,16.40
2019-01-05T07:20:44.529Z,21.77
2019-01-05T07:23:51.954Z,18.97
2019-01-05T07:27:17.369Z,20.93
2019-01-05T07:36:54.218Z,22.40
2019-01-05T07:40:19.640Z,19.90
2019-01-05T07:43:45.052Z,16.67
2019-01-05T07:46:52.498Z,23.17
2019-01-05T07:50:19.454Z,23.27
2019-01-05T07:53:44.863Z,26.73
2019-01-05T07:57:10.296Z,22.47
2019-01-05T08:00:17.743Z,25.73
2019-01-05T08:03:43.145Z,22.37
2019-01-05T08:07:08.568Z,27.53
2019-01-05T08:16:43.877Z,30.60
2019-01-05T08:20:09.292Z,20.87
2019-01-05T08:23:34.762Z,20.00
2019-01-05T08:29:56.247Z,20.93
2019-01-05T08:36:38.057Z,19.70
2019-01-05T08:43:31.268Z,24.77
2019-01-05T08:46:38.716Z,21.47
2019-01-05T08:53:31.209Z,23.20
2019-01-05T08:56:38.657Z,14.97
2019-01-05T09:00:04.070Z,23.47
2019-01-05T09:06:45.646Z,20.80
2019-01-05T09:09:53.069Z,20.50
2019-01-05T09:13:18.513Z,19.77
2019-01-05T09:16:25.929Z,26.83
2019-01-05T09:23:12.130Z,23.23
2019-01-05T09:30:04.608Z,21.27
2019-01-05T09:39:41.755Z,21.17
2019-01-05T09:43:07.180Z,25.00
2019-01-05T09:49:59.716Z,20.80
2019-01-05T09:56:21.156Z,18.63
2019-01-05T09:59:46.588Z,22.53
2019-01-05T10:02:54.039Z,20.83
2019-01-05T10:09:17.953Z,18.80
2019-01-05T10:12:25.393Z,18.30
2019-01-05T10:15:50.832Z,23.37
2019-01-05T10:18:58.301Z,21.03
2019-01-05T10:22:05.735Z,18.70
2019-01-05T10:25:13.174Z,18.80
2019-01-05T10:28:38.578Z,19.33
2019-01-05T10:31:46.016Z,18.90
2019-01-05T10:34:53.477Z,22.03
2019-01-05T10:38:18.879Z,22.50
2019-01-05T10:48:29.581Z,20.67
2019-01-05T10:51:55.384Z,24.67
2019-01-05T10:55:02.813Z,24.03
2019-01-05T10:58:28.234Z,22.03
2019-01-05T11:04:49.588Z,21.30
2019-01-05T11:07:57.043Z,24.60
2019-01-05T11:11:04.505Z,25.80
2019-01-05T11:17:57.015Z,21.80
2019-01-05T11:21:04.464Z,17.87
2019-01-05T11:27:25.493Z,24.77
2019-01-05T11:30:32.913Z,16.40
2019-01-05T11:33:58.522Z,19.23
2019-01-05T11:37:23.910Z,20.17
2019-01-05T11:40:31.342Z,19.77
2019-01-05T11:43:57.845Z,16.47
2019-01-05T11:47:05.289Z,22.40
2019-01-05T11:53:57.785Z,23.33
2019-01-05T11:57:05.235Z,17.63
2019-01-05T12:00:12.682Z,17.43
2019-01-05T12:03:20.115Z,21.43
2019-01-05T12:06:27.550Z,20.67
2019-01-05T12:12:10.470Z,21.10
2019-01-05T12:19:07.711Z,21.27
2019-01-05T12:22:15.139Z,21.60
2019-01-05T12:28:53.992Z,20.63
2019-01-05T12:38:41.669Z,20.83
2019-01-05T12:45:20.908Z,17.67
2019-01-05T12:48:28.387Z,18.23
2019-01-05T12:51:53.749Z,16.77
2019-01-05T12:55:20.761Z,16.97
2019-01-05T12:58:46.191Z,24.20
2019-01-05T13:01:53.626Z,16.33
2019-01-05T13:05:01.066Z,24.93
2019-01-05T13:08:26.484Z,26.07
2019-01-05T13:11:33.939Z,21.03
2019-01-05T13:14:41.372Z,14.67
2019-01-05T13:21:02.275Z,21.13
2019-01-05T13:31:09.469Z,19.17
2019-01-05T13:37:30.800Z,19.30
2019-01-05T13:40:56.210Z,18.50
2019-01-05T13:44:21.639Z,19.37
2019-01-05T13:47:47.065Z,21.33
2019-01-05T13:51:15.541Z,20.00
2019-01-05T13:54:23.005Z,18.40
2019-01-05T13:57:08.646Z,20.67
2019-01-05T13:59:54.307Z,22.13
2019-01-05T14:02:39.992Z,19.53
2019-01-05T14:05:25.623Z,15.13
2019-01-05T14:08:31.201Z,23.63
2019-01-05T14:11:16.819Z,22.00
2019-01-05T14:14:02.491Z,23.30
2019-01-05T14:16:48.138Z,24.80
2019-01-05T14:19:33.797Z,27.17
2019-01-05T14:22:19.447Z,20.70
2019-01-05T14:25:05.104Z,19.07
2019-01-05T14:27:50.740Z,25.57
2019-01-05T14:30:36.405Z,24.57
2019-01-05T14:33:22.048Z,22.67
2019-01-05T14:36:07.712Z,21.07
2019-01-05T14:41:40.664Z,23.93
2019-01-05T14:49:33.707Z,24.40
2019-01-05T14:52:19.360Z,24.07
2019-01-05T14:55:05.033Z,19.40
2019-01-05T14:57:50.675Z,23.67
2019-01-05T15:00:36.339Z,25.47
2019-01-05T15:03:21.982Z,21.13
2019-01-05T15:06:07.646Z,23.80
2019-01-05T15:08:53.292Z,28.47
2019-01-05T15:11:38.962Z,21.97
2019-01-05T15:14:24.616Z,25.57
2019-01-05T15:19:48.238Z,25.23
2019-01-05T15:22:33.896Z,38.37
2019-01-05T15:25:19.557Z,60.43
2019-01-05T15:28:05.220Z,26.03
2019-01-05T15:30:50.878Z,26.07
2019-01-05T15:33:36.537Z,29.50
2019-01-05T15:39:00.483Z,25.20
2019-01-05T15:44:25.012Z,31.87
2019-01-05T15:49:44.327Z,35.10
2019-01-05T15:52:29.994Z,31.10
2019-01-05T15:55:15.635Z,24.23
2019-01-05T16:00:34.647Z,27.30
2019-01-05T16:03:20.328Z,28.30
2019-01-05T16:08:53.289Z,30.93
2019-01-05T16:11:38.969Z,33.10
2019-01-05T16:14:24.606Z,38.87
2019-01-05T16:17:10.271Z,30.30
2019-01-05T16:19:55.914Z,30.07
2019-01-05T16:22:41.574Z,31.07
2019-01-05T16:25:27.218Z,27.90
2019-01-05T16:28:12.874Z,30.90
2019-01-05T16:30:58.545Z,26.27
2019-01-05T16:33:44.202Z,27.47
2019-01-05T16:36:29.977Z,25.53
2019-01-05T16:44:23.068Z,23.13
2019-01-05T16:49:56.040Z,23.53
2019-01-05T16:55:15.262Z,25.60
2019-01-05T16:58:00.916Z,21.47
2019-01-05T17:00:46.561Z,28.07
2019-01-05T17:06:10.099Z,28.67
2019-01-05T17:08:55.753Z,31.90
2019-01-05T17:11:41.422Z,23.73
2019-01-05T17:14:27.097Z,23.93
2019-01-05T17:17:12.731Z,26.37
2019-01-05T17:22:32.164Z,20.77
2019-01-05T17:25:17.824Z,20.93
2019-01-05T17:28:03.490Z,19.33
2019-01-05T17:30:49.139Z,17.60
2019-01-05T17:33:34.807Z,22.23
2019-01-05T17:36:20.462Z,16.07
2019-01-05T17:44:22.488Z,14.13
2019-01-05T17:47:08.144Z,10.63
2019-01-05T17:49:53.807Z,10.23
2019-01-05T17:52:39.435Z,11.37
2019-01-05T17:55:25.118Z,11.43
2019-01-05T18:00:58.062Z,10.53
2019-01-05T18:03:43.697Z,19.90
2019-01-05T18:06:29.431Z,9.10
2019-01-05T18:09:15.111Z,9.83
2019-01-05T18:12:00.782Z,11.27
2019-01-05T18:14:46.421Z,18.17
2019-01-05T18:25:30.906Z,10.13
2019-01-05T18:28:16.557Z,9.63
2019-01-05T18:36:40.144Z,33.37
2019-01-05T18:39:25.872Z,28.07
2019-01-05T18:42:11.538Z,24.30
2019-01-05T18:44:57.195Z,19.43
2019-01-05T18:47:42.857Z,20.33
2019-01-05T18:50:28.490Z,15.40
2019-01-05T18:53:14.162Z,14.90
2019-01-05T18:55:59.802Z,10.73
2019-01-05T18:58:45.471Z,12.23
2019-01-05T19:01:31.105Z,10.77
2019-01-05T19:07:04.057Z,10.90
2019-01-05T19:09:49.707Z,13.13
2019-01-05T19:12:35.391Z,9.07
2019-01-05T19:23:36.409Z,12.90
2019-01-05T19:26:22.066Z,9.97
2019-01-05T19:29:07.733Z,10.47
2019-01-05T19:34:40.673Z,13.87
2019-01-05T19:37:26.413Z,20.50
2019-01-05T19:40:12.086Z,15.50
2019-01-05T19:42:57.786Z,15.63
2019-01-05T19:48:30.742Z,13.17
2019-01-05T19:51:16.388Z,13.00
2019-01-05T19:54:02.052Z,19.37
2019-01-05T19:56:47.701Z,17.20
2019-01-05T19:59:33.383Z,17.33
2019-01-05T20:02:19.035Z,15.20
2019-01-05T20:05:04.692Z,17.47
2019-01-05T20:07:50.350Z,18.90
2019-01-05T20:10:35.996Z,15.97
2019-01-05T20:13:21.662Z,16.93
2019-01-05T20:16:07.322Z,15.93
2019-01-05T20:18:52.993Z,20.37
2019-01-05T20:21:38.638Z,26.87
2019-01-05T20:24:24.317Z,25.67
2019-01-05T20:27:09.962Z,23.73
2019-01-05T20:29:55.626Z,22.70
2019-01-05T20:32:41.279Z,20.77
2019-01-05T20:35:26.929Z,19.07
2019-01-05T20:40:59.885Z,19.50
2019-01-05T20:43:45.527Z,18.63
2019-01-05T20:46:31.195Z,19.32
2019-01-05T20:49:16.883Z,22.65
2019-01-05T20:52:02.543Z,20.37
2019-01-05T20:54:48.234Z,26.20
2019-01-05T20:57:33.881Z,18.53
2019-01-05T21:00:19.541Z,18.48
2019-01-05T21:03:05.194Z,21.13
2019-01-05T21:05:50.878Z,21.48
2019-01-05T21:08:36.526Z,22.35
2019-01-05T21:11:22.194Z,20.08
2019-01-05T21:14:07.859Z,21.97
2019-01-05T21:16:53.521Z,18.07
2019-01-05T21:19:39.183Z,23.25
2019-01-05T21:22:24.841Z,21.40
2019-01-05T21:33:29.075Z,25.72
2019-01-05T21:36:14.734Z,27.65
2019-01-05T21:41:38.779Z,111.17
2019-01-05T21:47:11.751Z,139.77
2019-01-05T21:49:57.398Z,128.65
2019-01-05T21:57:59.464Z,97.25
2019-01-05T22:00:45.127Z,113.25
2019-01-05T22:08:42.798Z,88.00
2019-01-05T22:11:28.460Z,110.50
2019-01-05T22:14:14.141Z,130.87
2019-01-05T22:16:59.849Z,105.85
2019-01-05T22:19:45.507Z,121.67
2019-01-05T22:22:31.195Z,71.62
2019-01-05T22:28:12.876Z,104.20
2019-01-05T22:30:58.520Z,90.10
2019-01-05T22:33:44.181Z,88.82
2019-01-05T22:39:17.141Z,76.82
2019-01-05T22:42:02.792Z,51.55
2019-01-05T22:44:48.473Z,56.55
2019-01-05T22:47:34.123Z,67.55
2019-01-05T22:50:19.785Z,63.87
2019-01-05T22:55:52.746Z,141.60
2019-01-05T22:58:38.408Z,77.92
2019-01-05T23:01:24.052Z,52.83
2019-01-05T23:04:09.715Z,126.82
2019-01-05T23:06:55.360Z,194.07
2019-01-05T23:09:41.029Z,329.57
2019-01-05T23:12:26.692Z,364.75
2019-01-05T23:15:12.361Z,236.10
2019-01-05T23:17:58.014Z,171.45
2019-01-05T23:20:43.675Z,187.20
2019-01-05T23:23:29.322Z,448.75
2019-01-05T23:26:14.989Z,304.15
2019-01-05T23:31:47.976Z,218.02
2019-01-05T23:37:07.338Z,178.93
2019-01-05T23:39:52.998Z,171.98
2019-01-05T23:42:38.668Z,102.85
2019-01-05T23:45:24.326Z,89.85
2019-01-05T23:48:09.981Z,95.72
2019-01-05T23:50:55.642Z,139.97
2019-01-05T23:53:41.303Z,156.87
2019-01-05T23:59:05.357Z,132.90
